createdAt,value
2022-08-27T00:00:45.609Z,3.42
2022-08-27T00:03:12.782Z,2.85
2022-08-27T00:05:40.453Z,3.17
2022-08-27T00:08:09.269Z,3.70
2022-08-27T00:10:35.918Z,3.78
2022-08-27T00:13:02.784Z,3.80
2022-08-27T00:15:29.925Z,3.95
2022-08-27T00:17:56.980Z,3.83
2022-08-27T00:20:25.979Z,3.63
2022-08-27T00:22:53.405Z,3.88
2022-08-27T00:25:20.726Z,4.18
2022-08-27T00:27:47.295Z,5.10
2022-08-27T00:30:18.394Z,4.35
2022-08-27T00:32:45.519Z,4.45
2022-08-27T00:35:14.169Z,4.50
2022-08-27T00:37:40.696Z,4.40
2022-08-27T00:40:11.807Z,3.90
2022-08-27T00:42:38.724Z,4.20
2022-08-27T00:45:07.277Z,4.90
2022-08-27T00:50:08.835Z,4.18
2022-08-27T00:52:43.289Z,4.70
2022-08-27T00:55:18.551Z,4.47
2022-08-27T00:57:51.210Z,4.95
2022-08-27T01:00:19.788Z,4.82
2022-08-27T01:05:18.386Z,4.78
2022-08-27T01:07:49.563Z,4.55
2022-08-27T01:10:20.060Z,4.75
2022-08-27T01:12:53.512Z,4.72
2022-08-27T01:15:23.281Z,4.25
2022-08-27T01:17:50.831Z,3.85
2022-08-27T01:20:26.067Z,4.15
2022-08-27T01:23:17.408Z,4.68
2022-08-27T01:25:45.355Z,4.95
2022-08-27T01:28:13.620Z,4.30
2022-08-27T01:30:40.751Z,3.80
2022-08-27T01:33:14.689Z,3.58
2022-08-27T01:35:43.256Z,3.85
2022-08-27T01:40:57.290Z,3.40
2022-08-27T01:43:24.538Z,3.22
2022-08-27T01:45:52.285Z,3.20
2022-08-27T01:48:20.911Z,3.50
2022-08-27T01:50:48.466Z,3.28
2022-08-27T01:53:18.618Z,4.00
2022-08-27T01:55:48.139Z,3.53
2022-08-27T01:58:16.855Z,3.53
2022-08-27T02:00:46.235Z,3.13
2022-08-27T02:03:12.876Z,2.80
2022-08-27T02:05:45.079Z,3.03
2022-08-27T02:08:13.170Z,2.60
2022-08-27T02:10:40.631Z,2.90
2022-08-27T02:13:08.182Z,2.70
2022-08-27T02:15:36.688Z,3.20
2022-08-27T02:20:31.380Z,2.23
2022-08-27T02:22:58.623Z,2.60
2022-08-27T02:25:27.582Z,2.20
2022-08-27T02:27:54.540Z,2.78
2022-08-27T02:30:24.074Z,3.22
2022-08-27T02:32:52.191Z,2.10
2022-08-27T02:35:21.270Z,2.53
2022-08-27T02:37:47.921Z,2.33
2022-08-27T02:40:17.206Z,2.95
2022-08-27T02:42:44.886Z,1.88
2022-08-27T02:45:13.282Z,2.60
2022-08-27T02:47:40.260Z,2.17
2022-08-27T02:50:08.353Z,2.00
2022-08-27T02:52:35.556Z,2.33
2022-08-27T02:55:02.070Z,1.92
2022-08-27T02:57:28.786Z,2.33
2022-08-27T02:59:55.260Z,2.38
2022-08-27T03:02:22.135Z,1.67
2022-08-27T03:04:52.357Z,2.30
2022-08-27T03:07:19.290Z,1.75
2022-08-27T03:09:45.785Z,1.73
2022-08-27T03:12:12.885Z,1.85
2022-08-27T03:14:39.592Z,2.08
2022-08-27T03:17:24.603Z,3.08
2022-08-27T03:19:51.084Z,2.17
2022-08-27T03:22:17.585Z,2.17
2022-08-27T03:24:44.076Z,2.53
2022-08-27T03:27:10.636Z,2.58
2022-08-27T03:29:37.153Z,3.03
2022-08-27T03:32:06.902Z,3.08
2022-08-27T03:34:34.073Z,3.50
2022-08-27T03:37:01.431Z,2.92
2022-08-27T03:39:27.940Z,3.00
2022-08-27T03:41:55.845Z,2.97
2022-08-27T03:44:25.465Z,3.17
2022-08-27T03:46:52.560Z,4.43
2022-08-27T03:49:21.415Z,3.00
2022-08-27T03:51:50.343Z,3.38
2022-08-27T03:54:17.252Z,2.97
2022-08-27T03:56:43.899Z,3.35
2022-08-27T03:59:10.460Z,2.88
2022-08-27T04:01:37.129Z,2.75
2022-08-27T04:04:04.258Z,3.13
2022-08-27T04:06:30.787Z,3.13
2022-08-27T04:08:57.267Z,2.85
2022-08-27T04:11:23.978Z,2.42
2022-08-27T04:13:51.019Z,2.72
2022-08-27T04:16:17.721Z,3.10
2022-08-27T04:18:44.249Z,2.53
2022-08-27T04:21:13.340Z,2.38
2022-08-27T04:23:41.704Z,2.45
2022-08-27T04:26:10.928Z,2.13
2022-08-27T04:28:38.955Z,1.85
2022-08-27T04:31:16.402Z,2.35
2022-08-27T04:33:44.010Z,2.45
2022-08-27T04:36:18.639Z,3.22
2022-08-27T04:38:45.370Z,3.25
2022-08-27T04:41:21.611Z,2.85
2022-08-27T04:43:57.516Z,3.50
2022-08-27T04:46:29.485Z,2.65
2022-08-27T04:48:58.045Z,3.20
2022-08-27T04:53:52.377Z,2.55
2022-08-27T04:56:22.318Z,2.53
2022-08-27T04:58:52.409Z,2.65
2022-08-27T05:01:22.573Z,2.65
2022-08-27T05:03:49.333Z,2.65
2022-08-27T05:06:17.463Z,2.40
2022-08-27T05:08:44.115Z,2.60
2022-08-27T05:11:14.980Z,2.85
2022-08-27T05:13:42.630Z,3.15
2022-08-27T05:16:12.309Z,3.20
2022-08-27T05:18:47.951Z,2.90
2022-08-27T05:21:21.047Z,4.18
2022-08-27T05:23:48.152Z,2.55
2022-08-27T05:26:15.639Z,2.95
2022-08-27T05:28:42.352Z,2.78
2022-08-27T05:31:11.729Z,2.45
2022-08-27T05:33:41.216Z,2.65
2022-08-27T05:36:14.473Z,2.88
2022-08-27T05:38:41.900Z,2.55
2022-08-27T05:41:14.224Z,2.42
2022-08-27T05:43:45.417Z,1.92
2022-08-27T05:46:17.172Z,2.30
2022-08-27T05:48:44.144Z,2.50
2022-08-27T05:51:14.600Z,2.17
2022-08-27T05:56:21.411Z,1.83
2022-08-27T05:59:08.673Z,2.42
2022-08-27T06:01:40.838Z,2.10
2022-08-27T06:04:08.249Z,2.00
2022-08-27T06:06:39.431Z,1.85
2022-08-27T06:09:07.096Z,1.70
2022-08-27T06:11:34.128Z,2.70
2022-08-27T06:14:01.041Z,1.75
2022-08-27T06:16:27.992Z,1.38
2022-08-27T06:18:54.992Z,1.50
2022-08-27T06:21:24.483Z,1.75
2022-08-27T06:23:52.749Z,1.42
2022-08-27T06:26:21.346Z,1.35
2022-08-27T06:31:17.623Z,1.52
2022-08-27T06:33:45.756Z,1.42
2022-08-27T06:36:16.092Z,1.40
2022-08-27T06:38:43.235Z,1.58
2022-08-27T06:41:16.571Z,1.60
2022-08-27T06:43:57.255Z,1.83
2022-08-27T06:46:26.265Z,1.52
2022-08-27T06:48:55.668Z,1.40
2022-08-27T06:51:26.395Z,1.67
2022-08-27T06:53:55.264Z,1.70
2022-08-27T06:56:22.980Z,1.98
2022-08-27T06:58:54.314Z,1.70
2022-08-27T07:01:28.114Z,1.50
2022-08-27T07:04:02.063Z,2.05
2022-08-27T07:06:30.614Z,1.65
2022-08-27T07:11:24.166Z,1.55
2022-08-27T07:13:51.343Z,1.52
2022-08-27T07:16:23.276Z,1.85
2022-08-27T07:18:52.201Z,1.70
2022-08-27T07:21:20.797Z,1.40
2022-08-27T07:23:49.202Z,2.05
2022-08-27T07:26:17.169Z,1.48
2022-08-27T07:28:45.103Z,1.35
2022-08-27T07:31:13.690Z,1.75
2022-08-27T07:33:42.174Z,1.50
2022-08-27T07:36:17.343Z,1.80
2022-08-27T07:38:43.867Z,1.50
2022-08-27T07:41:13.282Z,1.80
2022-08-27T07:43:58.834Z,1.58
2022-08-27T07:46:26.064Z,1.65
2022-08-27T07:48:55.387Z,1.95
2022-08-27T07:51:23.590Z,1.58
2022-08-27T07:53:50.815Z,1.63
2022-08-27T07:56:18.680Z,1.85
2022-08-27T07:58:45.677Z,1.90
2022-08-27T08:01:16.668Z,1.45
2022-08-27T08:03:54.268Z,1.63
2022-08-27T08:06:20.834Z,1.60
2022-08-27T08:08:47.834Z,2.05
2022-08-27T08:13:46.198Z,1.20
2022-08-27T08:16:13.892Z,1.50
2022-08-27T08:18:40.740Z,3.15
2022-08-27T08:21:10.777Z,2.00
2022-08-27T08:23:38.361Z,1.58
2022-08-27T08:26:05.580Z,1.47
2022-08-27T08:28:32.390Z,1.63
2022-08-27T08:30:59.296Z,1.63
2022-08-27T08:33:27.744Z,1.45
2022-08-27T08:35:54.415Z,1.30
2022-08-27T08:38:21.257Z,1.42
2022-08-27T08:40:50.662Z,1.70
2022-08-27T08:43:31.354Z,1.70
2022-08-27T08:46:07.852Z,1.30
2022-08-27T08:48:35.820Z,1.50
2022-08-27T08:51:10.187Z,1.60
2022-08-27T08:53:47.181Z,1.52
2022-08-27T08:56:25.663Z,1.23
2022-08-27T09:01:21.592Z,1.33
2022-08-27T09:03:55.059Z,1.40
2022-08-27T09:06:39.036Z,2.92
2022-08-27T09:09:25.969Z,1.50
2022-08-27T09:12:00.840Z,1.90
2022-08-27T09:14:38.919Z,4.85
2022-08-27T09:17:11.519Z,1.77
2022-08-27T09:19:39.080Z,1.42
2022-08-27T09:22:28.506Z,1.42
2022-08-27T09:25:11.654Z,1.42
2022-08-27T09:27:44.040Z,1.50
2022-08-27T09:30:14.110Z,1.60
2022-08-27T09:32:40.678Z,1.98
2022-08-27T09:35:11.184Z,1.30
2022-08-27T09:37:48.059Z,1.42
2022-08-27T09:40:23.123Z,1.30
2022-08-27T09:42:53.375Z,1.75
2022-08-27T09:45:27.764Z,1.58
2022-08-27T09:48:03.809Z,1.45
2022-08-27T09:50:45.419Z,1.38
2022-08-27T09:53:23.668Z,1.40
2022-08-27T09:56:04.845Z,1.20
2022-08-27T09:58:34.447Z,1.42
2022-08-27T10:01:07.474Z,1.25
2022-08-27T10:03:34.279Z,1.38
2022-08-27T10:06:01.359Z,1.35
2022-08-27T10:08:50.522Z,1.55
2022-08-27T10:11:26.017Z,1.30
2022-08-27T10:14:07.307Z,0.98
2022-08-27T10:16:36.569Z,1.45
2022-08-27T10:19:34.085Z,1.38
2022-08-27T10:22:16.856Z,1.73
2022-08-27T10:24:55.593Z,1.65
2022-08-27T10:27:35.388Z,1.50
2022-08-27T10:30:09.334Z,1.10
2022-08-27T10:32:44.720Z,1.15
2022-08-27T10:35:29.119Z,1.27
2022-08-27T10:38:07.711Z,1.17
2022-08-27T10:43:43.593Z,1.20
2022-08-27T10:46:36.230Z,1.30
2022-08-27T10:49:30.016Z,1.58
2022-08-27T10:52:37.877Z,1.25
2022-08-27T10:55:23.931Z,1.63
2022-08-27T10:58:11.088Z,1.40
2022-08-27T11:01:06.298Z,1.40
2022-08-27T11:03:36.085Z,1.50
2022-08-27T11:06:22.124Z,1.63
2022-08-27T11:09:07.401Z,2.10
2022-08-27T11:12:12.839Z,1.52
2022-08-27T11:14:55.235Z,1.60
2022-08-27T11:17:24.730Z,1.60
2022-08-27T11:20:01.683Z,1.45
2022-08-27T11:22:40.357Z,1.77
2022-08-27T11:25:46.691Z,1.63
2022-08-27T11:28:14.727Z,1.50
2022-08-27T11:31:04.181Z,1.63
2022-08-27T11:33:46.041Z,1.95
2022-08-27T11:36:39.208Z,1.90
2022-08-27T11:39:11.694Z,1.80
2022-08-27T11:42:00.037Z,2.03
2022-08-27T11:47:06.744Z,1.80
2022-08-27T11:49:45.203Z,1.70
2022-08-27T11:52:19.993Z,1.77
2022-08-27T11:54:50.522Z,1.70
2022-08-27T11:57:32.621Z,1.70
2022-08-27T12:00:10.926Z,1.90
2022-08-27T12:02:37.406Z,1.33
2022-08-27T12:05:32.258Z,1.77
2022-08-27T12:07:59.700Z,1.60
2022-08-27T12:10:46.433Z,1.63
2022-08-27T12:13:32.561Z,1.42
2022-08-27T12:16:09.119Z,1.73
2022-08-27T12:18:56.070Z,1.70
2022-08-27T12:21:28.156Z,1.77
2022-08-27T12:23:55.233Z,2.03
2022-08-27T12:26:34.441Z,1.63
2022-08-27T12:29:38.119Z,1.60
2022-08-27T12:32:36.736Z,1.77
2022-08-27T12:35:20.300Z,1.90
2022-08-27T12:38:03.855Z,1.55
2022-08-27T12:40:45.928Z,1.60
2022-08-27T12:43:17.474Z,1.50
2022-08-27T12:45:48.362Z,1.65
2022-08-27T12:48:37.909Z,1.35
2022-08-27T12:51:12.463Z,1.60
2022-08-27T12:53:52.967Z,1.63
2022-08-27T12:56:44.348Z,1.60
2022-08-27T12:59:41.158Z,1.20
2022-08-27T13:02:42.039Z,1.60
2022-08-27T13:05:12.038Z,1.80
2022-08-27T13:07:45.046Z,1.67
2022-08-27T13:10:14.696Z,1.20
2022-08-27T13:12:42.449Z,1.65
2022-08-27T13:15:14.496Z,1.92
2022-08-27T13:17:45.689Z,1.80
2022-08-27T13:20:24.552Z,1.73
2022-08-27T13:22:53.218Z,1.58
2022-08-27T13:25:30.183Z,1.40
2022-08-27T13:28:07.674Z,1.48
2022-08-27T13:30:36.958Z,1.40
2022-08-27T13:33:05.944Z,1.60
2022-08-27T13:35:32.681Z,2.25
2022-08-27T13:38:01.175Z,1.27
2022-08-27T13:43:04.183Z,1.30
2022-08-27T13:45:37.979Z,1.50
2022-08-27T13:48:05.707Z,1.25
2022-08-27T13:50:34.674Z,1.70
2022-08-27T13:53:28.939Z,1.40
2022-08-27T13:55:57.856Z,1.23
2022-08-27T13:58:28.585Z,1.40
2022-08-27T14:01:06.761Z,1.15
2022-08-27T14:03:37.046Z,1.70
2022-08-27T14:06:04.104Z,1.30
2022-08-27T14:08:34.456Z,1.48
2022-08-27T14:11:08.615Z,1.40
2022-08-27T14:13:46.779Z,1.80
2022-08-27T14:16:22.981Z,1.58
2022-08-27T14:19:01.205Z,1.40
2022-08-27T14:21:27.760Z,0.90
2022-08-27T14:23:54.263Z,1.23
2022-08-27T14:26:21.031Z,1.33
2022-08-27T14:28:47.657Z,1.20
2022-08-27T14:31:14.741Z,2.25
2022-08-27T14:33:41.705Z,1.20
2022-08-27T14:36:09.331Z,1.45
2022-08-27T14:38:39.509Z,1.60
2022-08-27T14:41:08.430Z,1.30
2022-08-27T14:43:35.155Z,1.30
2022-08-27T14:46:03.011Z,1.70
2022-08-27T14:48:33.558Z,1.48
2022-08-27T14:51:05.983Z,1.17
2022-08-27T14:53:32.484Z,1.30
2022-08-27T14:56:00.584Z,1.70
2022-08-27T14:58:27.332Z,1.35
2022-08-27T15:00:56.103Z,1.35
2022-08-27T15:03:25.514Z,1.50
2022-08-27T15:05:54.800Z,1.50
2022-08-27T15:08:27.615Z,1.50
2022-08-27T15:10:56.758Z,1.60
2022-08-27T15:13:23.608Z,2.08
2022-08-27T15:15:50.136Z,1.92
2022-08-27T15:18:18.962Z,1.60
2022-08-27T15:20:45.577Z,1.60
2022-08-27T15:23:14.063Z,1.67
2022-08-27T15:28:08.221Z,1.83
2022-08-27T15:30:36.868Z,1.90
2022-08-27T15:33:06.063Z,1.80
2022-08-27T15:35:32.887Z,1.40
2022-08-27T15:38:00.609Z,1.50
2022-08-27T15:40:31.588Z,1.50
2022-08-27T15:43:02.080Z,1.50
2022-08-27T15:45:30.099Z,1.48
2022-08-27T15:47:57.539Z,1.70
2022-08-27T15:50:25.668Z,1.50
2022-08-27T15:52:58.198Z,1.65
2022-08-27T15:55:28.264Z,1.52
2022-08-27T15:57:55.450Z,1.55
2022-08-27T16:00:23.237Z,1.83
2022-08-27T16:02:51.118Z,1.50
2022-08-27T16:05:19.474Z,1.52
2022-08-27T16:07:46.911Z,1.52
2022-08-27T16:10:14.565Z,2.00
2022-08-27T16:12:41.112Z,1.97
2022-08-27T16:15:08.795Z,1.80
2022-08-27T16:17:35.879Z,1.70
2022-08-27T16:20:03.828Z,1.42
2022-08-27T16:22:30.376Z,1.70
2022-08-27T16:24:56.940Z,1.63
2022-08-27T16:27:23.429Z,1.73
2022-08-27T16:29:50.573Z,1.90
2022-08-27T16:32:18.962Z,1.65
2022-08-27T16:34:52.524Z,1.60
2022-08-27T16:37:23.931Z,1.67
2022-08-27T16:39:50.988Z,1.20
2022-08-27T16:42:17.716Z,1.40
2022-08-27T16:44:44.276Z,1.45
2022-08-27T16:47:10.797Z,1.40
2022-08-27T16:49:55.862Z,1.60
2022-08-27T16:52:23.779Z,1.50
2022-08-27T16:54:51.574Z,1.40
2022-08-27T16:57:18.243Z,1.90
2022-08-27T16:59:44.737Z,1.45
2022-08-27T17:02:21.986Z,1.42
2022-08-27T17:05:07.292Z,1.58
2022-08-27T17:10:13.189Z,1.10
2022-08-27T17:12:40.733Z,1.60
2022-08-27T17:15:07.947Z,1.52
2022-08-27T17:17:34.442Z,1.65
2022-08-27T17:20:01.048Z,1.50
2022-08-27T17:22:27.556Z,1.52
2022-08-27T17:24:54.058Z,1.60
2022-08-27T17:27:20.614Z,1.80
2022-08-27T17:29:47.209Z,1.63
2022-08-27T17:32:13.902Z,1.67
2022-08-27T17:34:40.470Z,1.50
2022-08-27T17:37:06.962Z,1.70
2022-08-27T17:39:33.502Z,1.63
2022-08-27T17:42:00.109Z,1.33
2022-08-27T17:44:29.718Z,1.60
2022-08-27T17:47:00.982Z,1.45
2022-08-27T17:49:27.764Z,2.20
2022-08-27T17:51:59.945Z,1.55
2022-08-27T17:54:35.024Z,1.40
2022-08-27T17:57:04.302Z,1.55
2022-08-27T17:59:30.812Z,1.15
2022-08-27T18:01:57.647Z,1.48
2022-08-27T18:04:24.451Z,1.48
2022-08-27T18:06:50.964Z,1.50
2022-08-27T18:09:17.840Z,1.40
2022-08-27T18:11:45.214Z,2.00
2022-08-27T18:14:12.710Z,1.52
2022-08-27T18:16:44.786Z,1.30
2022-08-27T18:19:11.608Z,1.60
2022-08-27T18:21:42.746Z,1.80
2022-08-27T18:24:14.126Z,1.88
2022-08-27T18:26:40.723Z,1.92
2022-08-27T18:29:07.372Z,1.27
2022-08-27T18:31:34.319Z,1.60
2022-08-27T18:34:02.295Z,1.30
2022-08-27T18:36:29.172Z,1.50
2022-08-27T18:38:55.669Z,1.45
2022-08-27T18:41:23.399Z,1.65
2022-08-27T18:43:50.075Z,1.95
2022-08-27T18:46:17.418Z,1.80
2022-08-27T18:48:44.031Z,2.05
2022-08-27T18:51:13.584Z,1.67
2022-08-27T18:53:41.491Z,1.55
2022-08-27T18:56:10.015Z,1.38
2022-08-27T18:58:38.684Z,1.50
2022-08-27T19:01:10.138Z,1.45
2022-08-27T19:03:45.825Z,1.50
2022-08-27T19:06:13.388Z,1.40
2022-08-27T19:08:40.465Z,1.67
2022-08-27T19:11:07.115Z,2.00
2022-08-27T19:13:33.752Z,1.77
2022-08-27T19:16:24.379Z,1.60
2022-08-27T19:18:51.481Z,1.60
2022-08-27T19:21:18.008Z,2.03
2022-08-27T19:23:44.518Z,1.92
2022-08-27T19:26:23.807Z,1.90
2022-08-27T19:28:50.600Z,1.60
2022-08-27T19:31:17.276Z,1.40
2022-08-27T19:33:44.463Z,1.52
2022-08-27T19:36:15.733Z,1.60
2022-08-27T19:38:43.836Z,1.95
2022-08-27T19:41:10.770Z,1.55
2022-08-27T19:43:37.508Z,2.47
2022-08-27T19:46:05.059Z,1.65
2022-08-27T19:48:33.991Z,1.35
2022-08-27T19:51:00.820Z,1.70
2022-08-27T19:53:28.553Z,1.80
2022-08-27T19:55:55.143Z,1.67
2022-08-27T19:58:21.726Z,1.83
2022-08-27T20:00:48.927Z,1.50
2022-08-27T20:03:15.620Z,1.65
2022-08-27T20:05:43.086Z,1.52
2022-08-27T20:08:09.728Z,1.85
2022-08-27T20:10:39.681Z,2.00
2022-08-27T20:13:07.274Z,1.58
2022-08-27T20:15:35.147Z,1.77
2022-08-27T20:18:02.555Z,1.95
2022-08-27T20:20:29.249Z,2.05
2022-08-27T20:22:56.084Z,1.65
2022-08-27T20:25:23.751Z,1.90
2022-08-27T20:27:51.646Z,2.43
2022-08-27T20:30:22.778Z,2.00
2022-08-27T20:32:50.241Z,2.17
2022-08-27T20:35:17.877Z,1.98
2022-08-27T20:37:46.099Z,3.23
2022-08-27T20:40:21.326Z,4.60
2022-08-27T20:42:47.995Z,4.03
2022-08-27T20:45:15.687Z,2.95
2022-08-27T20:47:44.451Z,3.20
2022-08-27T20:50:12.873Z,2.50
2022-08-27T20:52:40.419Z,2.00
2022-08-27T20:55:09.678Z,1.70
2022-08-27T20:57:36.296Z,1.75
2022-08-27T21:00:20.068Z,1.55
2022-08-27T21:02:46.750Z,1.58
2022-08-27T21:05:16.739Z,1.95
2022-08-27T21:07:44.503Z,1.67
2022-08-27T21:10:11.033Z,1.63
2022-08-27T21:12:37.636Z,1.40
2022-08-27T21:15:07.255Z,1.30
2022-08-27T21:17:34.006Z,1.50
2022-08-27T21:20:00.899Z,1.70
2022-08-27T21:22:27.641Z,1.20
2022-08-27T21:24:55.325Z,1.50
2022-08-27T21:27:21.960Z,1.57
2022-08-27T21:29:48.976Z,1.40
2022-08-27T21:32:16.695Z,1.05
2022-08-27T21:34:43.379Z,1.30
2022-08-27T21:37:11.543Z,1.20
2022-08-27T21:39:40.060Z,1.45
2022-08-27T21:42:07.272Z,1.38
2022-08-27T21:44:34.332Z,1.42
2022-08-27T21:47:01.812Z,1.50
2022-08-27T21:49:28.653Z,1.13
2022-08-27T21:51:55.183Z,1.40
2022-08-27T21:54:23.421Z,1.30
2022-08-27T21:56:52.974Z,2.08
2022-08-27T21:59:20.028Z,1.70
2022-08-27T22:01:46.533Z,1.15
2022-08-27T22:04:13.356Z,1.20
2022-08-27T22:06:39.873Z,1.30
2022-08-27T22:09:06.422Z,2.22
2022-08-27T22:11:32.898Z,1.55
2022-08-27T22:13:59.464Z,1.70
2022-08-27T22:16:26.117Z,1.60
2022-08-27T22:18:54.784Z,2.25
2022-08-27T22:21:22.165Z,1.55
2022-08-27T22:23:51.339Z,1.63
2022-08-27T22:26:19.592Z,1.40
2022-08-27T22:28:46.090Z,1.70
2022-08-27T22:31:12.947Z,1.30
2022-08-27T22:33:39.771Z,1.70
2022-08-27T22:36:06.588Z,1.67
2022-08-27T22:38:34.041Z,2.28
2022-08-27T22:41:00.536Z,1.45
2022-08-27T22:43:27.856Z,2.15
2022-08-27T22:45:54.447Z,1.83
2022-08-27T22:48:21.187Z,2.03
2022-08-27T22:50:47.710Z,2.20
2022-08-27T22:53:14.328Z,1.95
2022-08-27T22:55:40.864Z,1.90
2022-08-27T22:58:07.375Z,1.80
2022-08-27T23:00:37.147Z,2.55
2022-08-27T23:03:06.766Z,1.70
2022-08-27T23:05:42.161Z,2.33
2022-08-27T23:08:10.563Z,1.85
2022-08-27T23:10:37.459Z,1.95
2022-08-27T23:13:05.361Z,2.10
2022-08-27T23:15:31.918Z,2.15
2022-08-27T23:18:01.379Z,2.17
2022-08-27T23:20:28.716Z,2.10
2022-08-27T23:22:55.372Z,2.67
2022-08-27T23:25:43.625Z,2.20
2022-08-27T23:28:14.382Z,1.92
2022-08-27T23:30:44.221Z,2.38
2022-08-27T23:33:12.024Z,2.40
2022-08-27T23:35:38.776Z,2.70
2022-08-27T23:38:05.332Z,2.85
2022-08-27T23:40:31.995Z,2.58
2022-08-27T23:42:58.631Z,2.95
2022-08-27T23:45:26.488Z,2.70
2022-08-27T23:47:53.510Z,2.47
2022-08-27T23:50:21.881Z,3.03
2022-08-27T23:52:55.552Z,3.20
2022-08-27T23:55:22.130Z,3.20
2022-08-27T23:57:49.854Z,3.03
